createdAt,value
2022-11-10T00:01:10.938Z,98005.25
2022-11-10T00:03:40.080Z,98008.81
2022-11-10T00:06:09.444Z,98014.00
2022-11-10T00:08:36.740Z,98017.56
2022-11-10T00:11:08.224Z,98019.47
2022-11-10T00:13:57.805Z,98016.03
2022-11-10T00:16:43.542Z,98020.50
2022-11-10T00:19:10.422Z,98026.78
2022-11-10T00:21:37.721Z,98034.84
2022-11-10T00:24:05.139Z,98036.03
2022-11-10T00:26:31.925Z,98024.16
2022-11-10T00:28:58.730Z,98029.50
2022-11-10T00:31:28.302Z,98037.56
2022-11-10T00:33:55.423Z,98038.63
2022-11-10T00:36:22.132Z,98044.06
2022-11-10T00:38:51.446Z,98042.63
2022-11-10T00:41:18.239Z,98046.28
2022-11-10T00:43:45.051Z,98043.69
2022-11-10T00:46:12.371Z,98048.16
2022-11-10T00:48:39.070Z,98053.59
2022-11-10T00:51:07.057Z,98054.53
2022-11-10T00:53:33.809Z,98062.34
2022-11-10T00:56:00.522Z,98069.34
2022-11-10T00:58:27.214Z,98082.44
2022-11-10T01:01:04.824Z,98085.03
2022-11-10T01:03:32.337Z,98072.25
2022-11-10T01:06:04.109Z,98083.50
2022-11-10T01:08:30.792Z,98079.13
2022-11-10T01:11:08.737Z,98085.16
2022-11-10T01:13:36.706Z,98081.72
2022-11-10T01:16:13.906Z,98090.38
2022-11-10T01:18:41.795Z,98074.97
2022-11-10T01:21:09.421Z,98089.78
2022-11-10T01:23:36.560Z,98085.63
2022-11-10T01:26:07.109Z,98097.94
2022-11-10T01:28:36.062Z,98098.13
2022-11-10T01:31:10.758Z,98099.22
2022-11-10T01:33:38.544Z,98106.31
2022-11-10T01:36:07.186Z,98108.19
2022-11-10T01:38:40.788Z,98116.34
2022-11-10T01:41:13.275Z,98117.59
2022-11-10T01:43:40.541Z,98118.06
2022-11-10T01:46:10.294Z,98127.97
2022-11-10T01:48:47.786Z,98133.50
2022-11-10T01:51:26.315Z,98133.22
2022-11-10T01:54:06.909Z,98137.91
2022-11-10T01:56:41.840Z,98143.56
2022-11-10T01:59:15.395Z,98143.16
2022-11-10T02:01:42.308Z,98141.84
2022-11-10T02:04:14.404Z,98141.31
2022-11-10T02:06:43.825Z,98141.53
2022-11-10T02:09:11.549Z,98147.91
2022-11-10T02:11:40.390Z,98147.78
2022-11-10T02:14:07.759Z,98146.13
2022-11-10T02:16:36.322Z,98149.66
2022-11-10T02:19:20.715Z,98148.84
2022-11-10T02:21:47.845Z,98148.09
2022-11-10T02:24:15.146Z,98149.03
2022-11-10T02:26:49.991Z,98149.03
2022-11-10T02:29:17.105Z,98154.94
2022-11-10T02:31:43.801Z,98154.22
2022-11-10T02:34:11.169Z,98169.84
2022-11-10T02:36:37.943Z,98160.38
2022-11-10T02:39:04.636Z,98167.44
2022-11-10T02:41:31.331Z,98168.50
2022-11-10T02:43:58.995Z,98165.06
2022-11-10T02:46:25.858Z,98174.03
2022-11-10T02:48:52.639Z,98171.63
2022-11-10T02:51:19.543Z,98173.72
2022-11-10T02:53:46.291Z,98180.25
2022-11-10T02:56:13.107Z,98179.03
2022-11-10T02:58:39.852Z,98185.56
2022-11-10T03:01:07.148Z,98199.00
2022-11-10T03:03:34.894Z,98206.44
2022-11-10T03:06:02.023Z,98203.53
2022-11-10T03:08:28.763Z,98203.91
2022-11-10T03:10:56.822Z,98209.41
2022-11-10T03:13:35.694Z,98207.31
2022-11-10T03:16:13.138Z,98221.72
2022-11-10T03:18:39.851Z,98234.19
2022-11-10T03:21:06.537Z,98225.97
2022-11-10T03:23:37.060Z,98225.44
2022-11-10T03:26:06.276Z,98230.81
2022-11-10T03:28:34.077Z,98227.69
2022-11-10T03:31:00.783Z,98243.28
2022-11-10T03:33:27.519Z,98239.28
2022-11-10T03:35:54.193Z,98242.19
2022-11-10T03:38:20.884Z,98237.38
2022-11-10T03:41:17.743Z,98235.91
2022-11-10T03:43:37.441Z,98244.09
2022-11-10T03:46:04.181Z,98246.22
2022-11-10T03:48:30.872Z,98259.50
2022-11-10T03:50:57.549Z,98263.41
2022-11-10T03:53:24.660Z,98253.22
2022-11-10T03:55:51.602Z,98262.19
2022-11-10T03:58:18.278Z,98257.50
2022-11-10T04:00:44.988Z,98272.41
2022-11-10T04:03:12.040Z,98263.97
2022-11-10T04:05:57.072Z,98270.47
2022-11-10T04:08:42.504Z,98278.50
2022-11-10T04:11:09.187Z,98278.78
2022-11-10T04:13:54.456Z,98293.81
2022-11-10T04:16:21.144Z,98299.34
2022-11-10T04:18:47.940Z,98303.03
2022-11-10T04:21:14.930Z,98302.50
2022-11-10T04:23:41.688Z,98301.00
2022-11-10T04:26:30.487Z,98306.56
2022-11-10T04:29:01.955Z,98303.56
2022-11-10T04:31:32.514Z,98303.75
2022-11-10T04:34:01.751Z,98310.03
2022-11-10T04:36:32.745Z,98319.59
2022-11-10T04:38:59.701Z,98319.03
2022-11-10T04:41:30.081Z,98320.91
2022-11-10T04:44:01.208Z,98322.91
2022-11-10T04:46:36.006Z,98319.56
2022-11-10T04:49:05.284Z,98324.19
2022-11-10T04:51:36.471Z,98331.13
2022-11-10T04:54:05.232Z,98337.47
2022-11-10T04:56:32.051Z,98339.50
2022-11-10T04:58:58.835Z,98337.09
2022-11-10T05:01:27.532Z,98342.59
2022-11-10T05:03:55.519Z,98361.53
2022-11-10T05:06:22.747Z,98358.22
2022-11-10T05:08:49.725Z,98362.72
2022-11-10T05:11:18.877Z,98365.50
2022-11-10T05:13:46.789Z,98364.91
2022-11-10T05:16:14.320Z,98366.09
2022-11-10T05:18:42.116Z,98358.59
2022-11-10T05:21:09.307Z,98370.09
2022-11-10T05:23:39.335Z,98380.59
2022-11-10T05:26:16.247Z,98378.84
2022-11-10T05:28:45.151Z,98390.13
2022-11-10T05:31:14.779Z,98402.47
2022-11-10T05:34:04.820Z,98400.03
2022-11-10T05:36:31.590Z,98402.06
2022-11-10T05:39:03.711Z,98409.22
2022-11-10T05:41:30.479Z,98409.47
2022-11-10T05:44:19.849Z,98411.38
2022-11-10T05:46:46.601Z,98424.63
2022-11-10T05:49:16.311Z,98416.19
2022-11-10T05:51:43.005Z,98427.28
2022-11-10T05:54:09.777Z,98430.88
2022-11-10T05:56:36.551Z,98438.88
2022-11-10T05:59:03.258Z,98430.59
2022-11-10T06:01:29.968Z,98435.84
2022-11-10T06:03:56.707Z,98448.19
2022-11-10T06:06:23.438Z,98449.16
2022-11-10T06:08:50.439Z,98453.75
2022-11-10T06:11:17.169Z,98450.69
2022-11-10T06:13:43.952Z,98440.59
2022-11-10T06:16:10.662Z,98451.00
2022-11-10T06:18:43.491Z,98464.94
2022-11-10T06:21:10.188Z,98470.19
2022-11-10T06:23:39.320Z,98474.59
2022-11-10T06:26:11.165Z,98478.97
2022-11-10T06:28:43.616Z,98491.06
2022-11-10T06:31:10.385Z,98498.81
2022-11-10T06:33:37.146Z,98500.56
2022-11-10T06:36:03.932Z,98506.72
2022-11-10T06:38:30.618Z,98516.31
2022-11-10T06:40:57.344Z,98524.06
2022-11-10T06:43:26.630Z,98524.91
2022-11-10T06:45:53.415Z,98529.97
2022-11-10T06:48:20.433Z,98533.47
2022-11-10T06:50:47.109Z,98542.81
2022-11-10T06:53:31.712Z,98550.22
2022-11-10T06:55:58.603Z,98559.34
2022-11-10T06:58:25.289Z,98568.47
2022-11-10T07:01:22.479Z,98574.88
2022-11-10T07:04:17.706Z,98574.47
2022-11-10T07:06:36.779Z,98580.13
2022-11-10T07:09:03.618Z,98579.59
2022-11-10T07:11:30.321Z,98580.41
2022-11-10T07:13:59.405Z,98597.25
2022-11-10T07:16:26.168Z,98597.88
2022-11-10T07:19:02.069Z,98598.25
2022-11-10T07:21:29.508Z,98608.22
2022-11-10T07:23:56.229Z,98605.66
2022-11-10T07:26:31.513Z,98608.09
2022-11-10T07:29:00.486Z,98607.59
2022-11-10T07:31:27.231Z,98616.25
2022-11-10T07:34:13.174Z,98606.06
2022-11-10T07:36:39.948Z,98613.78
2022-11-10T07:39:06.655Z,98619.16
2022-11-10T07:41:33.439Z,98613.00
2022-11-10T07:44:00.150Z,98628.56
2022-11-10T07:46:26.948Z,98616.44
2022-11-10T07:48:53.678Z,98616.78
2022-11-10T07:51:20.474Z,98621.16
2022-11-10T07:53:47.212Z,98634.03
2022-11-10T07:56:14.343Z,98634.22
2022-11-10T07:58:41.190Z,98653.38
2022-11-10T08:01:07.871Z,98649.09
2022-11-10T08:03:34.615Z,98650.88
2022-11-10T08:06:01.377Z,98663.53
2022-11-10T08:08:28.066Z,98665.53
2022-11-10T08:10:57.933Z,98678.28
2022-11-10T08:13:25.045Z,98667.56
2022-11-10T08:15:51.958Z,98681.75
2022-11-10T08:18:22.769Z,98680.47
2022-11-10T08:20:49.507Z,98678.28
2022-11-10T08:23:17.825Z,98703.44
2022-11-10T08:25:46.704Z,98697.59
2022-11-10T08:28:17.808Z,98695.72
2022-11-10T08:30:47.607Z,98699.41
2022-11-10T08:33:18.110Z,98706.91
2022-11-10T08:35:48.574Z,98727.03
2022-11-10T08:38:24.326Z,98732.13
2022-11-10T08:40:51.369Z,98726.19
2022-11-10T08:43:18.789Z,98719.94
2022-11-10T08:45:45.979Z,98727.44
2022-11-10T08:48:20.600Z,98722.22
2022-11-10T08:50:49.414Z,98727.38
2022-11-10T08:53:23.521Z,98723.97
2022-11-10T08:55:51.120Z,98735.63
2022-11-10T08:58:21.395Z,98737.69
2022-11-10T09:00:48.621Z,98747.53
2022-11-10T09:03:22.793Z,98751.06
2022-11-10T09:05:57.643Z,98755.56
2022-11-10T09:08:25.681Z,98745.13
2022-11-10T09:10:52.531Z,98734.72
2022-11-10T09:13:29.038Z,98747.84
2022-11-10T09:16:02.214Z,98754.63
2022-11-10T09:18:29.621Z,98759.63
2022-11-10T09:20:56.700Z,98751.44
2022-11-10T09:23:25.091Z,98760.91
2022-11-10T09:25:55.349Z,98770.59
2022-11-10T09:28:23.359Z,98790.16
2022-11-10T09:30:52.035Z,98788.28
2022-11-10T09:33:19.390Z,98801.53
2022-11-10T09:35:46.455Z,98800.59
2022-11-10T09:38:13.408Z,98814.03
2022-11-10T09:41:02.831Z,98815.31
2022-11-10T09:43:54.671Z,98819.31
2022-11-10T09:46:31.016Z,98819.50
2022-11-10T09:49:20.867Z,98834.00
2022-11-10T09:51:48.885Z,98843.72
2022-11-10T09:54:40.182Z,98847.03
2022-11-10T09:57:13.603Z,98851.22
2022-11-10T09:59:43.967Z,98851.94
2022-11-10T10:02:29.604Z,98851.00
2022-11-10T10:05:21.917Z,98845.16
2022-11-10T10:08:14.618Z,98851.44
2022-11-10T10:10:49.981Z,98841.41
2022-11-10T10:13:57.121Z,98839.13
2022-11-10T10:16:54.263Z,98846.63
2022-11-10T10:20:00.301Z,98829.75
2022-11-10T10:22:53.223Z,98829.97
2022-11-10T10:25:25.565Z,98831.75
2022-11-10T10:28:24.264Z,98842.19
2022-11-10T10:30:51.493Z,98841.88
2022-11-10T10:33:21.397Z,98836.31
2022-11-10T10:35:50.846Z,98847.47
2022-11-10T10:38:34.943Z,98849.63
2022-11-10T10:41:20.961Z,98842.28
2022-11-10T10:43:54.435Z,98843.78
2022-11-10T10:46:28.342Z,98833.94
2022-11-10T10:49:29.105Z,98840.72
2022-11-10T10:52:16.103Z,98836.22
2022-11-10T10:54:43.516Z,98839.47
2022-11-10T10:57:31.473Z,98842.72
2022-11-10T11:00:22.262Z,98842.25
2022-11-10T11:03:33.328Z,98839.75
2022-11-10T11:06:27.531Z,98834.31
2022-11-10T11:09:00.287Z,98834.00
2022-11-10T11:11:40.170Z,98834.19
2022-11-10T11:14:20.573Z,98835.38
2022-11-10T11:16:54.825Z,98836.78
2022-11-10T11:19:37.201Z,98840.69
2022-11-10T11:22:32.270Z,98835.97
2022-11-10T11:25:29.394Z,98847.91
2022-11-10T11:28:54.633Z,98847.34
2022-11-10T11:31:49.903Z,98829.00
2022-11-10T11:34:32.524Z,98836.91
2022-11-10T11:37:52.201Z,98838.56
2022-11-10T11:40:32.853Z,98831.38
2022-11-10T11:43:31.573Z,98838.50
2022-11-10T11:46:20.514Z,98829.22
2022-11-10T11:49:02.751Z,98838.81
2022-11-10T11:51:53.873Z,98821.31
2022-11-10T11:55:02.232Z,98828.22
2022-11-10T11:57:39.858Z,98819.88
2022-11-10T12:00:15.507Z,98825.91
2022-11-10T12:03:19.584Z,98818.53
2022-11-10T12:05:56.473Z,98811.91
2022-11-10T12:08:35.251Z,98821.16
2022-11-10T12:11:26.386Z,98813.50
2022-11-10T12:14:20.526Z,98807.66
2022-11-10T12:17:06.764Z,98817.88
2022-11-10T12:19:44.190Z,98810.97
2022-11-10T12:22:39.549Z,98819.47
2022-11-10T12:25:21.165Z,98817.59
2022-11-10T12:27:59.793Z,98815.66
2022-11-10T12:30:27.420Z,98812.81
2022-11-10T12:33:14.704Z,98811.50
2022-11-10T12:35:46.047Z,98804.59
2022-11-10T12:38:36.258Z,98799.41
2022-11-10T12:41:12.380Z,98805.81
2022-11-10T12:43:57.177Z,98801.22
2022-11-10T12:46:23.983Z,98801.03
2022-11-10T12:49:22.974Z,98803.59
2022-11-10T12:52:24.962Z,98798.81
2022-11-10T12:54:51.789Z,98811.47
2022-11-10T12:57:24.929Z,98817.59
2022-11-10T13:00:14.091Z,98813.66
2022-11-10T13:02:46.879Z,98813.63
2022-11-10T13:05:42.266Z,98823.00
2022-11-10T13:08:29.631Z,98813.28
2022-11-10T13:11:30.566Z,98820.78
2022-11-10T13:14:00.497Z,98835.72
2022-11-10T13:16:40.473Z,98826.38
2022-11-10T13:19:38.660Z,98825.31
2022-11-10T13:22:10.391Z,98837.66
2022-11-10T13:24:44.223Z,98839.50
2022-11-10T13:27:45.949Z,98836.31
2022-11-10T13:30:43.601Z,98829.44
2022-11-10T13:33:25.590Z,98829.16
2022-11-10T13:35:57.400Z,98831.09
2022-11-10T13:38:36.333Z,98821.09
2022-11-10T13:41:25.148Z,98825.75
2022-11-10T13:43:56.913Z,98828.88
2022-11-10T13:46:36.639Z,98827.22
2022-11-10T13:49:49.122Z,98826.09
2022-11-10T13:52:57.905Z,98830.38
2022-11-10T13:56:07.615Z,98829.84
2022-11-10T13:58:36.489Z,98829.84
2022-11-10T14:01:18.317Z,98824.03
2022-11-10T14:03:48.048Z,98831.47
2022-11-10T14:06:41.882Z,98822.34
2022-11-10T14:09:33.330Z,98828.66
2022-11-10T14:12:14.896Z,98838.03
2022-11-10T14:15:02.949Z,98838.47
2022-11-10T14:17:39.240Z,98841.56
2022-11-10T14:20:43.271Z,98848.28
2022-11-10T14:26:41.811Z,98839.94
2022-11-10T14:29:20.722Z,98850.28
2022-11-10T14:31:47.853Z,98846.66
2022-11-10T14:34:18.521Z,98856.50
2022-11-10T14:37:01.195Z,98852.47
2022-11-10T14:39:33.668Z,98856.31
2022-11-10T14:42:05.448Z,98862.00
2022-11-10T14:44:34.508Z,98863.75
2022-11-10T14:47:27.128Z,98864.53
2022-11-10T14:50:21.271Z,98867.41
2022-11-10T14:52:53.872Z,98872.25
2022-11-10T14:55:26.654Z,98864.69
2022-11-10T14:58:24.437Z,98876.66
2022-11-10T15:00:52.095Z,98876.75
2022-11-10T15:03:38.675Z,98886.44
2022-11-10T15:06:25.645Z,98894.59
2022-11-10T15:08:57.713Z,98897.56
2022-11-10T15:11:46.794Z,98903.16
2022-11-10T15:14:35.313Z,98904.66
2022-11-10T15:17:05.989Z,98907.63
2022-11-10T15:19:53.366Z,98919.38
2022-11-10T15:22:29.583Z,98914.38
2022-11-10T15:25:00.085Z,98924.28
2022-11-10T15:27:32.228Z,98915.94
2022-11-10T15:30:02.362Z,98922.97
2022-11-10T15:32:50.605Z,98931.91
2022-11-10T15:35:23.233Z,98927.78
2022-11-10T15:38:21.087Z,98927.94
2022-11-10T15:40:50.858Z,98923.63
2022-11-10T15:43:24.317Z,98934.94
2022-11-10T15:46:13.756Z,98936.72
2022-11-10T15:48:50.365Z,98942.50
2022-11-10T15:51:25.617Z,98942.34
2022-11-10T15:53:54.159Z,98937.03
2022-11-10T15:56:24.105Z,98939.53
2022-11-10T15:58:57.655Z,98940.91
2022-11-10T16:01:27.536Z,98934.72
2022-11-10T16:03:55.070Z,98941.19
2022-11-10T16:06:21.890Z,98931.41
2022-11-10T16:08:48.727Z,98943.88
2022-11-10T16:11:21.421Z,98953.88
2022-11-10T16:13:51.697Z,98964.00
2022-11-10T16:16:20.178Z,98964.56
2022-11-10T16:18:47.125Z,98969.25
2022-11-10T16:21:17.320Z,98958.53
2022-11-10T16:23:44.337Z,98971.25
2022-11-10T16:26:17.145Z,98977.63
2022-11-10T16:28:47.554Z,98971.09
2022-11-10T16:31:21.807Z,98977.38
2022-11-10T16:33:49.603Z,98990.72
2022-11-10T16:36:31.202Z,98995.41
2022-11-10T16:39:02.361Z,98987.13
2022-11-10T16:41:29.125Z,98982.44
2022-11-10T16:43:55.849Z,98984.44
2022-11-10T16:46:26.741Z,98986.69
2022-11-10T16:48:58.302Z,98987.88
2022-11-10T16:51:44.191Z,98985.56
2022-11-10T16:54:16.307Z,98990.19
2022-11-10T16:56:43.069Z,98993.88
2022-11-10T16:59:10.504Z,98994.28
2022-11-10T17:01:40.174Z,98998.94
2022-11-10T17:04:11.605Z,98994.94
2022-11-10T17:06:38.628Z,98997.00
2022-11-10T17:09:17.136Z,99004.09
2022-11-10T17:11:43.924Z,99011.22
2022-11-10T17:14:12.931Z,99015.84
2022-11-10T17:16:43.965Z,99008.50
2022-11-10T17:19:20.120Z,99017.50
2022-11-10T17:21:49.533Z,99027.13
2022-11-10T17:24:17.213Z,99023.09
2022-11-10T17:26:45.236Z,99019.88
2022-11-10T17:29:21.110Z,99027.00
2022-11-10T17:31:50.132Z,99027.22
2022-11-10T17:34:16.927Z,99027.53
2022-11-10T17:36:43.765Z,99031.34
2022-11-10T17:39:14.914Z,99041.84
2022-11-10T17:41:41.696Z,99050.78
2022-11-10T17:44:14.306Z,99049.41
2022-11-10T17:46:42.596Z,99047.88
2022-11-10T17:49:09.338Z,99040.25
2022-11-10T17:51:36.836Z,99035.41
2022-11-10T17:54:04.267Z,99042.53
2022-11-10T17:56:32.409Z,99032.50
2022-11-10T17:58:59.372Z,99031.75
2022-11-10T18:01:26.235Z,99024.97
2022-11-10T18:03:53.072Z,99025.88
2022-11-10T18:06:21.037Z,99021.75
2022-11-10T18:08:48.239Z,99034.00
2022-11-10T18:11:18.413Z,99034.06
2022-11-10T18:13:45.738Z,99043.91
2022-11-10T18:16:14.154Z,99039.88
2022-11-10T18:18:41.993Z,99049.47
2022-11-10T18:21:10.266Z,99042.91
2022-11-10T18:23:37.001Z,99050.81
2022-11-10T18:26:06.058Z,99047.44
2022-11-10T18:28:34.988Z,99044.25
2022-11-10T18:31:13.098Z,99037.56
2022-11-10T18:33:40.542Z,99028.28
2022-11-10T18:36:08.741Z,99035.44
2022-11-10T18:38:35.800Z,99044.22
2022-11-10T18:41:26.568Z,99052.22
2022-11-10T18:43:53.942Z,99062.72
2022-11-10T18:46:20.651Z,99055.97
2022-11-10T18:48:47.803Z,99059.47
2022-11-10T18:51:16.156Z,99069.97
2022-11-10T18:53:42.845Z,99073.59
2022-11-10T18:56:09.635Z,99070.31
2022-11-10T18:58:36.347Z,99078.19
2022-11-10T19:01:08.932Z,99080.94
2022-11-10T19:03:37.122Z,99087.16
2022-11-10T19:06:05.427Z,99096.97
2022-11-10T19:08:32.177Z,99093.00
2022-11-10T19:10:59.549Z,99090.50
2022-11-10T19:13:26.491Z,99099.25
2022-11-10T19:15:55.593Z,99097.63
2022-11-10T19:18:22.334Z,99106.31
2022-11-10T19:20:49.036Z,99108.28
2022-11-10T19:23:15.746Z,99116.31
2022-11-10T19:25:42.528Z,99101.84
2022-11-10T19:28:11.476Z,99103.59
2022-11-10T19:30:39.360Z,99105.44
2022-11-10T19:33:06.392Z,99101.25
2022-11-10T19:35:33.175Z,99111.72
2022-11-10T19:37:59.927Z,99105.84
2022-11-10T19:40:26.685Z,99107.75
2022-11-10T19:42:53.407Z,99115.72
2022-11-10T19:45:20.192Z,99121.94
2022-11-10T19:47:46.913Z,99122.91
2022-11-10T19:50:13.650Z,99137.78
2022-11-10T19:52:40.380Z,99144.03
2022-11-10T19:55:07.535Z,99138.13
2022-11-10T19:57:34.331Z,99127.03
2022-11-10T20:00:01.048Z,99135.69
2022-11-10T20:02:28.037Z,99139.22
2022-11-10T20:05:12.660Z,99146.22
2022-11-10T20:07:58.334Z,99145.66
2022-11-10T20:10:25.062Z,99154.38
2022-11-10T20:12:51.972Z,99155.16
2022-11-10T20:15:18.743Z,99161.16
2022-11-10T20:17:45.444Z,99154.50
2022-11-10T20:20:12.202Z,99148.69
2022-11-10T20:22:39.038Z,99170.34
2022-11-10T20:25:06.393Z,99168.72
2022-11-10T20:27:33.124Z,99161.88
2022-11-10T20:29:59.834Z,99170.41
2022-11-10T20:32:27.252Z,99167.91
2022-11-10T20:34:54.129Z,99167.13
2022-11-10T20:37:21.217Z,99156.06
2022-11-10T20:39:48.003Z,99149.34
2022-11-10T20:42:14.704Z,99182.03
2022-11-10T20:44:41.473Z,99173.44
2022-11-10T20:47:08.249Z,99167.53
2022-11-10T20:49:35.079Z,99173.69
2022-11-10T20:52:02.017Z,99180.66
2022-11-10T20:54:29.160Z,99176.47
2022-11-10T20:56:55.861Z,99165.41
2022-11-10T20:59:22.560Z,99171.50
2022-11-10T21:01:49.421Z,99164.78
2022-11-10T21:04:16.205Z,99173.44
2022-11-10T21:06:43.016Z,99185.38
2022-11-10T21:09:09.922Z,99168.16
2022-11-10T21:11:54.948Z,99169.09
2022-11-10T21:14:21.653Z,99175.16
2022-11-10T21:16:48.362Z,99175.22
2022-11-10T21:19:15.156Z,99169.34
2022-11-10T21:21:42.131Z,99177.94
2022-11-10T21:24:10.154Z,99175.44
2022-11-10T21:26:38.373Z,99178.19
2022-11-10T21:29:07.693Z,99174.91
2022-11-10T21:31:34.814Z,99172.53
2022-11-10T21:34:01.740Z,99180.38
2022-11-10T21:36:29.473Z,99183.97
2022-11-10T21:38:58.401Z,99183.22
2022-11-10T21:41:26.227Z,99179.00
2022-11-10T21:43:53.232Z,99171.31
2022-11-10T21:46:20.779Z,99173.19
2022-11-10T21:48:49.169Z,99067.13
2022-11-10T21:51:16.383Z,99185.13
2022-11-10T21:53:43.102Z,99180.09
2022-11-10T21:56:12.095Z,99178.41
2022-11-10T21:58:39.540Z,99172.59
2022-11-10T22:01:21.003Z,99183.91
2022-11-10T22:03:47.902Z,99173.72
2022-11-10T22:06:17.544Z,99180.69
2022-11-10T22:08:47.308Z,99185.16
2022-11-10T22:11:40.565Z,99181.81
2022-11-10T22:14:32.087Z,99192.06
2022-11-10T22:17:18.606Z,99195.44
2022-11-10T22:19:45.530Z,99182.66
2022-11-10T22:22:14.143Z,99181.88
2022-11-10T22:24:41.212Z,99179.53
2022-11-10T22:27:08.142Z,99187.38
2022-11-10T22:29:34.849Z,99196.06
2022-11-10T22:32:02.440Z,99190.97
2022-11-10T22:34:29.529Z,99194.50
2022-11-10T22:36:56.937Z,99178.31
2022-11-10T22:39:43.605Z,99185.13
2022-11-10T22:42:31.224Z,99186.09
2022-11-10T22:44:58.416Z,99190.47
2022-11-10T22:47:25.209Z,99193.25
2022-11-10T22:49:51.915Z,99196.75
2022-11-10T22:52:18.618Z,99193.31
2022-11-10T22:54:45.319Z,99186.53
2022-11-10T22:57:12.016Z,99185.75
2022-11-10T22:59:38.779Z,99196.91
2022-11-10T23:02:05.480Z,99192.66
2022-11-10T23:04:34.565Z,99196.91
2022-11-10T23:07:01.312Z,99188.44
2022-11-10T23:09:28.063Z,99191.06
2022-11-10T23:11:54.797Z,99196.34
2022-11-10T23:14:21.487Z,99199.00
2022-11-10T23:16:48.184Z,99203.44
2022-11-10T23:19:14.960Z,99196.63
2022-11-10T23:21:41.644Z,99200.91
2022-11-10T23:24:08.743Z,99188.97
2022-11-10T23:26:35.484Z,99183.94
2022-11-10T23:29:02.201Z,99185.78
2022-11-10T23:31:28.941Z,99191.03
2022-11-10T23:33:57.688Z,99188.53
2022-11-10T23:36:26.830Z,99180.94
2022-11-10T23:38:54.997Z,99180.84
2022-11-10T23:41:23.648Z,99179.94
2022-11-10T23:43:50.475Z,99186.84
2022-11-10T23:46:17.529Z,99190.31
2022-11-10T23:48:44.436Z,99195.50
2022-11-10T23:51:13.712Z,99206.78
2022-11-10T23:53:40.718Z,99204.28
2022-11-10T23:56:11.975Z,99199.28
2022-11-10T23:58:38.891Z,99210.47
